Time;durP1;ratioP1;P1;durP2;ratioP2;P2;SDS_P1;SDS_P2;PMS_P1;PMS_P2;Temp;Humidity;BMP_temperature;BMP_pressure;BME280_temperature;BME280_humidity;BME280_pressure;Samples;Min_cycle;Max_cycle;Signal;HPM_P1;HPM_P2
2022/01/22 00:01:29;;;;;;;;;15.67;15.00;;;;;9.79;48.71;103218.72;5083815;28;45476;-77
2022/01/22 00:03:55;;;;;;;;;20.33;18.67;;;;;9.67;48.60;103204.28;5082422;28;45434;-78
2022/01/22 00:06:21;;;;;;;;;16.67;16.67;;;;;9.72;48.36;103212.97;5067454;27;46320;-76
2022/01/22 00:08:47;;;;;;;;;15.67;15.67;;;;;9.66;48.36;103192.47;5064200;28;45398;-74
2022/01/22 00:11:19;;;;;;;;;14.33;12.67;;;;;9.70;48.51;103198.53;5088333;28;45281;-79
2022/01/22 00:16:28;;;;;;;;;19.33;19.00;;;;;9.74;48.39;103201.88;5103095;27;46199;-78
2022/01/22 00:18:54;;;;;;;;;18.00;15.67;;;;;9.69;48.78;103202.31;5103273;27;45369;-80
2022/01/22 00:21:19;;;;;;;;;16.67;13.67;;;;;9.68;48.30;103198.66;5105209;27;45382;-78
2022/01/22 00:23:54;;;;;;;;;17.33;16.67;;;;;9.64;48.28;103200.00;5087812;27;45489;-77
2022/01/22 00:26:20;;;;;;;;;20.00;18.00;;;;;9.76;48.41;103197.09;5105260;27;45356;-78
2022/01/22 00:28:45;;;;;;;;;17.33;15.67;;;;;9.75;48.35;103188.03;5109765;27;44744;-80
2022/01/22 00:31:11;;;;;;;;;22.67;19.33;;;;;9.76;48.68;103187.03;5105459;27;45331;-80
2022/01/22 00:33:36;;;;;;;;;18.33;15.33;;;;;9.75;48.89;103176.22;5085641;27;45779;-79
2022/01/22 00:36:02;;;;;;;;;17.33;16.00;;;;;9.82;48.86;103182.81;5103179;27;46111;-78
2022/01/22 00:38:28;;;;;;;;;18.33;17.67;;;;;9.77;48.94;103182.41;5104035;27;45275;-80
2022/01/22 00:40:53;;;;;;;;;16.67;13.33;;;;;9.69;49.03;103175.75;5103374;27;45395;-80
2022/01/22 00:43:20;;;;;;;;;14.00;12.67;;;;;9.80;48.73;103195.81;5103406;27;45346;-80
2022/01/22 00:45:46;;;;;;;;;18.67;16.00;;;;;9.78;48.97;103184.13;5103532;27;45353;-80
2022/01/22 00:48:12;;;;;;;;;15.67;15.67;;;;;9.73;49.17;103179.09;5090124;27;45380;-78
2022/01/22 00:50:37;;;;;;;;;19.33;18.00;;;;;9.80;49.21;103193.94;5105184;27;45456;-79
2022/01/22 00:53:03;;;;;;;;;21.00;16.00;;;;;9.83;49.23;103192.78;5102277;27;45494;-79
2022/01/22 00:55:29;;;;;;;;;12.33;12.33;;;;;9.83;49.36;103184.56;5102873;27;45424;-77
2022/01/22 00:57:55;;;;;;;;;12.33;12.33;;;;;9.81;48.82;103190.19;5102592;27;45448;-78
2022/01/22 01:00:20;;;;;;;;;18.67;14.33;;;;;9.80;48.85;103193.94;5095519;27;45390;-78
2022/01/22 01:02:47;;;;;;;;;19.00;18.00;;;;;9.80;48.69;103191.19;5081161;28;45380;-78
2022/01/22 01:05:13;;;;;;;;;15.33;14.33;;;;;9.82;48.85;103196.53;5084547;27;46235;-79
2022/01/22 01:07:41;;;;;;;;;16.67;13.00;;;;;9.81;48.95;103200.28;5110451;27;45408;-77
2022/01/22 01:10:08;;;;;;;;;14.00;12.33;;;;;9.82;49.05;103191.94;5064563;28;44786;-80
2022/01/22 01:12:37;;;;;;;;;15.67;13.67;;;;;9.84;48.82;103194.53;5063674;28;46560;-80
2022/01/22 01:33:52;;;;;;;;;18.33;14.00;;;;;9.84;48.55;103178.94;5104096;27;45397;-80
2022/01/22 01:36:18;;;;;;;;;14.33;13.33;;;;;9.83;48.90;103182.69;5103457;27;45706;-81
2022/01/22 01:38:52;;;;;;;;;17.33;14.67;;;;;9.79;48.81;103173.03;5103491;27;44805;-80
2022/01/22 01:41:34;;;;;;;;;20.00;17.33;;;;;9.87;48.73;103177.78;5093655;27;45514;-79
2022/01/22 01:44:00;;;;;;;;;14.00;14.00;;;;;9.85;49.18;103166.09;5081473;28;45319;-79
2022/01/22 01:46:29;;;;;;;;;15.67;15.33;;;;;9.85;48.95;103157.88;5081833;28;45374;-79
2022/01/22 01:48:55;;;;;;;;;19.33;16.33;;;;;9.86;48.95;103165.94;5076172;27;45495;-77
2022/01/22 01:51:24;;;;;;;;;15.67;14.67;;;;;9.90;48.94;103166.53;5102454;27;45401;-80
2022/01/22 01:54:30;;;;;;;;;16.33;14.67;;;;;9.84;48.63;103162.50;5083914;27;45528;-80
2022/01/22 01:59:26;;;;;;;;;8.67;8.67;;;;;9.91;48.75;103176.50;5102493;27;45463;-78
2022/01/22 02:01:52;;;;;;;;;12.67;11.67;;;;;9.89;49.15;103181.25;5102495;27;45425;-80
2022/01/22 02:04:17;;;;;;;;;22.33;16.00;;;;;9.86;48.61;103182.38;5102937;27;45506;-78
2022/01/22 02:06:43;;;;;;;;;16.67;16.67;;;;;9.88;48.61;103182.28;5103728;27;46000;-80
2022/01/22 02:09:10;;;;;;;;;19.00;15.00;;;;;9.93;48.71;103182.69;5104254;27;45416;-81
2022/01/22 02:11:37;;;;;;;;;14.67;13.33;;;;;9.89;48.84;103176.66;5101966;27;45527;-78
2022/01/22 02:24:54;;;;;;;;;16.33;15.00;;;;;9.93;48.58;103171.72;5081247;28;45465;-80
2022/01/22 02:27:19;;;;;;;;;17.67;16.00;;;;;9.87;48.50;103164.94;5081421;28;45430;-79
2022/01/22 02:29:47;;;;;;;;;16.00;15.00;;;;;9.87;49.00;103158.59;5083174;28;45469;-79
2022/01/22 02:37:45;;;;;;;;;19.33;14.00;;;;;9.94;49.04;103172.59;5094684;27;45342;-79
2022/01/22 02:40:16;;;;;;;;;14.67;13.00;;;;;9.95;48.60;103169.69;5101866;27;45385;-78
2022/01/22 02:42:45;;;;;;;;;13.67;11.67;;;;;9.97;48.78;103178.66;5101745;27;45543;-79
2022/01/22 02:45:17;;;;;;;;;12.33;10.67;;;;;9.99;48.17;103173.03;5102400;27;45503;-77
2022/01/22 02:47:43;;;;;;;;;13.00;12.00;;;;;9.97;48.37;103164.06;5102117;27;45430;-77
2022/01/22 02:50:09;;;;;;;;;14.67;12.33;;;;;9.95;49.18;103155.13;5101302;27;45384;-77
2022/01/22 02:52:34;;;;;;;;;15.00;13.00;;;;;9.97;48.68;103159.47;5100876;27;45368;-79
2022/01/22 02:55:00;;;;;;;;;17.33;16.00;;;;;9.94;49.77;103157.03;5082977;27;46003;-79
2022/01/22 02:57:26;;;;;;;;;13.00;10.00;;;;;9.99;48.94;103148.34;5082160;27;47347;-78
2022/01/22 02:59:52;;;;;;;;;16.00;14.00;;;;;9.99;49.12;103146.47;5101263;27;45426;-79
2022/01/22 03:02:18;;;;;;;;;15.00;13.00;;;;;9.97;48.61;103137.53;5100623;27;45461;-78
2022/01/22 03:04:44;;;;;;;;;12.00;10.33;;;;;10.03;48.90;103152.50;5100026;27;45802;-79
2022/01/22 03:07:10;;;;;;;;;15.33;13.00;;;;;10.04;48.84;103151.50;5090666;27;45416;-78
2022/01/22 03:09:45;;;;;;;;;15.33;12.33;;;;;10.04;48.92;103146.91;5078745;28;45600;-79
2022/01/22 03:22:19;;;;;;;;;14.00;14.00;;;;;9.99;48.81;103146.47;5099286;27;45716;-78
2022/01/22 03:27:31;;;;;;;;;11.67;11.33;;;;;9.99;49.33;103149.22;5088188;27;45359;-77
2022/01/22 03:29:57;;;;;;;;;12.00;11.00;;;;;9.98;49.25;103158.44;5080257;28;45422;-78
2022/01/22 03:32:27;;;;;;;;;15.00;13.67;;;;;9.98;49.01;103147.47;5080008;28;45548;-78
2022/01/22 03:35:08;;;;;;;;;18.00;14.33;;;;;9.99;49.63;103149.22;5063534;28;45903;-79
2022/01/22 03:37:34;;;;;;;;;12.67;10.67;;;;;9.98;49.48;103147.47;5092486;27;46080;-77
2022/01/22 03:40:00;;;;;;;;;15.33;14.33;;;;;10.00;49.81;103153.69;5100385;27;45368;-77
2022/01/22 03:42:25;;;;;;;;;12.67;9.00;;;;;9.98;49.57;103149.34;5101470;27;45336;-78
2022/01/22 03:44:51;;;;;;;;;13.00;13.00;;;;;9.97;49.56;103162.22;5082644;27;45954;-78
2022/01/22 03:47:16;;;;;;;;;10.67;10.67;;;;;9.92;49.73;103163.66;5088601;27;47112;-78
2022/01/22 03:49:42;;;;;;;;;13.67;11.33;;;;;9.89;49.51;103165.69;5100697;27;45280;-78
2022/01/22 03:52:07;;;;;;;;;15.67;13.00;;;;;9.86;49.92;103165.09;5103117;27;45430;-77
2022/01/22 03:54:34;;;;;;;;;13.33;10.00;;;;;9.82;49.50;103156.31;5101206;27;45365;-78
2022/01/22 03:56:59;;;;;;;;;13.00;9.67;;;;;9.87;50.19;103161.34;5100386;27;46623;-79
2022/01/22 03:59:25;;;;;;;;;12.00;10.67;;;;;9.77;49.52;103147.63;5100273;27;45575;-80
2022/01/22 04:04:25;;;;;;;;;14.67;11.00;;;;;9.80;49.94;103162.94;5099856;27;45535;-81
2022/01/22 04:09:38;;;;;;;;;10.33;9.33;;;;;9.81;49.86;103161.94;5100373;27;45433;-76
2022/01/22 04:12:04;;;;;;;;;11.67;11.33;;;;;9.80;50.16;103160.19;5100691;27;45455;-78
2022/01/22 04:14:34;;;;;;;;;11.33;11.00;;;;;9.85;50.05;103160.59;5099676;27;45376;-77
2022/01/22 04:24:55;;;;;;;;;10.33;9.33;;;;;9.96;50.26;103137.69;5101876;27;45400;-80
2022/01/22 04:27:27;;;;;;;;;10.33;9.00;;;;;9.94;49.96;103148.78;5100624;27;46154;-78
2022/01/22 04:29:57;;;;;;;;;12.00;12.00;;;;;9.96;49.96;103157.72;5099502;27;45281;-78
2022/01/22 04:32:23;;;;;;;;;9.33;9.33;;;;;9.97;49.65;103150.34;5096647;27;45403;-78
2022/01/22 04:34:49;;;;;;;;;11.67;10.00;;;;;9.95;49.86;103145.03;5083233;28;45285;-78
2022/01/22 04:37:17;;;;;;;;;12.00;12.00;;;;;9.97;50.02;103151.25;5084738;28;45329;-78
2022/01/22 04:39:44;;;;;;;;;10.00;9.00;;;;;9.98;49.82;103150.22;5083436;28;45359;-78
2022/01/22 04:42:09;;;;;;;;;9.00;9.00;;;;;10.01;49.74;103147.19;5067574;28;45513;-78
2022/01/22 04:44:42;;;;;;;;;17.67;13.67;;;;;10.01;49.96;103149.91;5066395;28;46073;-78
2022/01/22 04:55:06;;;;;;;;;11.33;10.00;;;;;9.88;49.91;103152.13;5103764;27;45725;-77
2022/01/22 04:57:36;;;;;;;;;13.00;12.00;;;;;9.92;50.26;103158.16;5084457;27;46780;-78
2022/01/22 05:00:05;;;;;;;;;12.67;12.33;;;;;9.92;50.63;103153.53;5104409;27;45463;-78
2022/01/22 05:02:31;;;;;;;;;13.00;10.33;;;;;9.81;50.17;103142.75;5088024;27;45651;-76
2022/01/22 05:04:56;;;;;;;;;12.67;11.33;;;;;9.90;50.12;103155.56;5085314;27;46160;-78
2022/01/22 05:07:22;;;;;;;;;11.67;10.00;;;;;9.90;50.61;103158.31;5104373;27;46242;-78
2022/01/22 05:09:47;;;;;;;;;12.67;12.67;;;;;9.89;50.27;103159.31;5086403;27;45386;-80
2022/01/22 05:12:13;;;;;;;;;13.33;12.33;;;;;9.89;49.90;103153.84;5106399;27;45518;-79
2022/01/22 05:14:38;;;;;;;;;12.00;12.00;;;;;9.90;50.42;103161.06;5086053;27;45490;-80
2022/01/22 05:17:06;;;;;;;;;12.33;12.33;;;;;9.92;50.17;103150.78;5105164;27;45427;-79
2022/01/22 05:22:04;;;;;;;;;17.33;13.00;;;;;9.93;49.96;103154.44;5091099;27;45378;-79
2022/01/22 05:24:32;;;;;;;;;16.00;13.67;;;;;9.91;50.57;103154.56;5064286;28;46295;-78
2022/01/22 05:37:51;;;;;;;;;16.33;16.33;;;;;9.94;49.75;103167.09;5074788;28;45786;-76
2022/01/22 05:40:17;;;;;;;;;16.33;15.33;;;;;9.92;50.71;103161.75;5081269;28;45370;-77
2022/01/22 05:42:42;;;;;;;;;11.67;10.67;;;;;9.89;50.37;103159.31;5081909;28;45704;-77
2022/01/22 05:45:08;;;;;;;;;24.00;20.67;;;;;9.97;50.28;103162.22;5097757;27;45343;-78
2022/01/22 05:47:35;;;;;;;;;15.67;14.33;;;;;9.93;50.71;103146.19;5083958;27;45903;-78
2022/01/22 05:50:05;;;;;;;;;16.67;13.67;;;;;10.00;50.27;103161.91;5103546;27;45326;-77
2022/01/22 05:52:40;;;;;;;;;19.67;15.00;;;;;10.04;50.33;103163.38;5103188;27;45369;-80
2022/01/22 06:00:28;;;;;;;;;18.67;17.67;;;;;10.05;50.23;103159.59;5085635;27;45504;-77
2022/01/22 06:02:54;;;;;;;;;19.67;16.33;;;;;10.00;50.06;103167.41;5113377;27;45501;-77
2022/01/22 06:05:20;;;;;;;;;19.00;17.00;;;;;10.04;49.93;103163.38;5105611;27;45527;-79
2022/01/22 06:07:46;;;;;;;;;24.00;19.67;;;;;10.08;50.22;103169.41;5085709;27;47317;-79
2022/01/22 06:10:17;;;;;;;;;18.67;17.67;;;;;10.12;49.78;103169.97;5101843;27;45548;-78
2022/01/22 06:12:57;;;;;;;;;20.67;17.67;;;;;10.10;50.26;103178.34;5076438;27;45513;-79
2022/01/22 06:15:23;;;;;;;;;21.33;19.67;;;;;10.05;50.04;103176.03;5094709;27;45448;-78
2022/01/22 06:17:48;;;;;;;;;21.33;18.33;;;;;10.08;50.01;103181.22;5100392;27;46283;-78
2022/01/22 06:20:15;;;;;;;;;19.00;17.00;;;;;10.12;50.00;103170.84;5100876;27;45433;-78
2022/01/22 06:22:41;;;;;;;;;21.67;20.33;;;;;10.10;49.95;103172.84;5102839;27;45529;-78
2022/01/22 06:25:07;;;;;;;;;19.00;18.33;;;;;10.06;49.92;103174.19;5087084;27;45730;-78
2022/01/22 06:27:33;;;;;;;;;22.00;18.33;;;;;10.08;49.60;103172.16;5081454;27;47578;-75
2022/01/22 06:29:58;;;;;;;;;18.33;16.33;;;;;10.17;49.71;103175.91;5092499;27;45421;-77
2022/01/22 06:32:24;;;;;;;;;21.33;17.67;;;;;10.15;49.71;103172.41;5097326;27;45351;-79
2022/01/22 06:34:52;;;;;;;;;27.00;21.67;;;;;10.16;49.43;103166.78;5098139;27;45308;-76
2022/01/22 06:37:18;;;;;;;;;18.33;18.33;;;;;10.15;50.23;103170.56;5077095;27;48451;-77
2022/01/22 06:42:29;;;;;;;;;17.67;16.33;;;;;10.17;49.85;103182.25;5098410;27;46111;-79
2022/01/22 06:44:57;;;;;;;;;24.00;21.33;;;;;10.19;50.10;103182.09;5091430;27;45507;-77
2022/01/22 06:47:24;;;;;;;;;20.67;18.67;;;;;10.20;49.93;103172.84;5087225;27;46928;-76
2022/01/22 06:49:49;;;;;;;;;26.33;22.00;;;;;10.18;49.82;103175.75;5105726;27;45491;-77
2022/01/22 06:52:15;;;;;;;;;21.67;20.67;;;;;10.23;49.73;103191.75;5093963;27;45461;-80
2022/01/22 06:54:42;;;;;;;;;23.00;18.33;;;;;10.25;49.76;103181.50;5091571;27;45420;-78
2022/01/22 06:57:08;;;;;;;;;22.33;21.00;;;;;10.27;50.35;103187.72;5080489;28;46934;-81
2022/01/22 06:59:34;;;;;;;;;24.33;22.00;;;;;10.30;49.12;103179.19;5078104;28;45863;-82
2022/01/22 07:01:59;;;;;;;;;25.33;21.00;;;;;10.32;49.11;103185.38;5091496;27;45498;-79
2022/01/22 07:04:25;;;;;;;;;23.33;19.00;;;;;10.33;49.77;103184.41;5064761;28;46024;-81
2022/01/22 07:06:50;;;;;;;;;21.00;21.00;;;;;10.37;49.40;103190.47;5089522;27;45524;-79
2022/01/22 07:09:16;;;;;;;;;28.67;21.67;;;;;10.36;48.82;103189.59;5101027;27;45483;-76
2022/01/22 07:11:41;;;;;;;;;23.00;21.33;;;;;10.38;48.89;103193.06;5095768;27;45442;-78
2022/01/22 07:14:07;;;;;;;;;20.67;19.00;;;;;10.38;49.19;103190.31;5086995;27;46034;-74
2022/01/22 07:16:32;;;;;;;;;17.67;17.33;;;;;10.37;49.02;103183.13;5097852;27;45564;-76
2022/01/22 07:19:02;;;;;;;;;29.00;26.00;;;;;10.39;49.09;103186.56;5111406;27;45407;-74
2022/01/22 07:21:32;;;;;;;;;22.33;21.33;;;;;10.37;49.06;103188.59;5095490;27;45543;-73
2022/01/22 07:26:30;;;;;;;;;28.33;21.00;;;;;10.30;49.22;103179.19;5095353;27;46029;-74
2022/01/22 07:28:57;;;;;;;;;30.33;23.00;;;;;10.34;49.26;103194.34;5074075;27;45426;-74
2022/01/22 07:31:25;;;;;;;;;25.00;22.00;;;;;10.36;49.33;103188.72;5092379;27;45686;-74
2022/01/22 07:33:50;;;;;;;;;23.67;21.67;;;;;10.35;50.00;103192.50;5097454;27;45583;-74
2022/01/22 07:36:16;;;;;;;;;21.33;17.67;;;;;10.36;50.13;103205.19;5102523;27;46639;-72
2022/01/22 07:38:42;;;;;;;;;26.67;21.00;;;;;10.38;49.47;103194.94;5092700;27;45473;-75
2022/01/22 07:41:39;;;;;;;;;18.00;18.00;;;;;10.42;49.14;103200.00;5100346;27;45820;-74
2022/01/22 07:44:04;;;;;;;;;26.00;21.67;;;;;10.46;49.54;103207.94;5081534;28;45472;-75
2022/01/22 07:46:31;;;;;;;;;28.00;24.67;;;;;10.48;48.86;103205.88;5090498;27;46377;-74
2022/01/22 07:48:56;;;;;;;;;24.33;21.33;;;;;10.48;48.58;103200.41;5103189;27;45251;-74
2022/01/22 07:51:22;;;;;;;;;28.33;23.67;;;;;10.48;48.74;103208.63;5103600;27;45987;-76
2022/01/22 07:53:47;;;;;;;;;27.33;24.00;;;;;10.47;49.07;103201.44;5102433;27;45610;-75
2022/01/22 07:56:13;;;;;;;;;30.67;25.67;;;;;10.44;49.58;103202.59;5088830;27;46289;-79
2022/01/22 07:58:39;;;;;;;;;33.67;28.67;;;;;10.42;48.60;103208.22;5111500;27;45465;-74
2022/01/22 08:01:07;;;;;;;;;26.33;26.00;;;;;10.42;49.23;103200.00;5085468;27;45339;-77
2022/01/22 08:03:33;;;;;;;;;24.00;21.00;;;;;10.46;48.44;103202.44;5081210;27;46589;-75
2022/01/22 08:05:58;;;;;;;;;28.33;23.67;;;;;10.38;48.86;103197.69;5078464;27;47588;-77
2022/01/22 08:08:24;;;;;;;;;28.67;26.67;;;;;10.45;48.96;103212.56;5105107;27;45579;-78
2022/01/22 08:10:49;;;;;;;;;23.00;23.00;;;;;10.40;49.05;103206.63;5100771;27;45444;-79
2022/01/22 08:13:18;;;;;;;;;25.67;23.67;;;;;10.41;48.66;103214.72;5112644;27;45515;-78
2022/01/22 08:15:46;;;;;;;;;28.33;25.33;;;;;10.47;48.81;103215.16;5102911;27;46410;-76
2022/01/22 08:18:12;;;;;;;;;28.67;27.00;;;;;10.48;49.16;103219.59;5105728;27;45512;-73
2022/01/22 08:20:38;;;;;;;;;24.00;23.33;;;;;10.47;49.21;103207.78;5107617;27;45693;-73
2022/01/22 08:23:03;;;;;;;;;32.33;25.33;;;;;10.52;49.50;103218.31;5104041;27;45577;-75
2022/01/22 08:25:32;;;;;;;;;30.00;25.33;;;;;10.56;48.83;103227.97;5108070;27;45951;-74
2022/01/22 08:30:28;;;;;;;;;26.67;24.00;;;;;10.53;48.90;103231.03;5103494;27;45571;-74
2022/01/22 08:35:53;;;;;;;;;28.33;24.00;;;;;10.56;47.88;103233.47;5106212;27;45602;-78
2022/01/22 08:38:25;;;;;;;;;26.00;23.67;;;;;10.56;48.17;103236.22;5083319;27;45906;-77
2022/01/22 08:40:51;;;;;;;;;27.67;23.33;;;;;10.60;48.25;103243.16;5102538;27;45420;-77
2022/01/22 08:43:20;;;;;;;;;27.67;23.00;;;;;10.63;48.42;103239.22;5102119;27;45480;-79
2022/01/22 08:45:49;;;;;;;;;27.33;23.33;;;;;10.65;47.85;103246.28;5103951;27;45622;-77
2022/01/22 08:48:16;;;;;;;;;25.33;23.00;;;;;10.68;48.23;103251.50;5087978;27;45445;-79
2022/01/22 08:50:41;;;;;;;;;26.67;24.33;;;;;10.65;48.30;103240.81;5088164;27;45520;-77
2022/01/22 08:53:07;;;;;;;;;30.67;26.67;;;;;10.73;47.90;103251.94;5084116;27;45589;-79
2022/01/22 08:55:33;;;;;;;;;26.33;24.67;;;;;10.70;48.23;103244.00;5099414;27;46598;-78
2022/01/22 08:57:58;;;;;;;;;24.33;22.33;;;;;10.75;48.04;103243.53;5062880;28;45499;-78
2022/01/22 09:00:24;;;;;;;;;25.33;23.33;;;;;10.83;48.24;103253.78;5081136;28;45352;-78
2022/01/22 09:02:53;;;;;;;;;28.33;23.33;;;;;10.85;47.63;103265.47;5098061;27;45311;-79
2022/01/22 09:05:30;;;;;;;;;24.67;23.33;;;;;10.85;47.60;103271.81;5104254;27;46844;-80
2022/01/22 09:07:59;;;;;;;;;27.00;25.00;;;;;10.87;47.41;103267.06;5085480;28;45369;-78
2022/01/22 09:10:25;;;;;;;;;26.67;23.67;;;;;10.86;47.37;103268.06;5088495;27;45358;-78
2022/01/22 09:12:50;;;;;;;;;22.67;20.33;;;;;10.82;47.09;103268.50;5101523;27;45686;-78
2022/01/22 09:15:16;;;;;;;;;46.33;35.67;;;;;10.88;47.30;103274.28;5100356;27;45467;-74
2022/01/22 09:17:47;;;;;;;;;28.00;23.67;;;;;10.88;47.06;103270.66;5078245;27;45409;-72
2022/01/22 09:20:19;;;;;;;;;26.33;25.33;;;;;10.88;47.21;103273.41;5082101;27;45489;-73
2022/01/22 09:22:45;;;;;;;;;30.33;27.00;;;;;10.87;47.62;103274.44;5081478;27;45868;-78
2022/01/22 09:25:15;;;;;;;;;22.33;20.33;;;;;10.84;47.70;103264.59;5084509;27;47927;-82
2022/01/22 09:27:40;;;;;;;;;30.67;29.33;;;;;10.87;46.99;103269.81;5102065;27;45365;-79
2022/01/22 09:30:07;;;;;;;;;28.67;25.33;;;;;10.90;47.40;103276.88;5099795;27;45705;-78
2022/01/22 09:32:35;;;;;;;;;26.67;23.00;;;;;10.96;46.94;103281.78;5099559;27;45335;-75
2022/01/22 09:35:00;;;;;;;;;28.00;25.00;;;;;11.01;47.13;103284.91;5097115;27;46661;-73
2022/01/22 09:37:35;;;;;;;;;26.00;22.00;;;;;11.03;47.03;103284.78;5102140;27;45477;-75
2022/01/22 09:40:03;;;;;;;;;23.67;23.67;;;;;11.08;46.59;103288.81;5102129;27;45812;-74
2022/01/22 09:42:29;;;;;;;;;23.67;22.67;;;;;11.11;46.59;103293.16;5079733;27;46025;-73
2022/01/22 09:44:54;;;;;;;;;29.00;23.33;;;;;11.15;46.26;103293.69;5094013;27;45732;-72
2022/01/22 09:47:21;;;;;;;;;28.67;25.00;;;;;11.09;46.65;103292.41;5089980;27;45888;-71
2022/01/22 09:49:47;;;;;;;;;24.67;22.67;;;;;11.08;46.66;103287.94;5082570;27;45556;-79
2022/01/22 09:52:13;;;;;;;;;33.00;26.33;;;;;11.11;46.45;103291.25;5081294;27;45733;-77
2022/01/22 09:54:44;;;;;;;;;26.67;23.33;;;;;11.16;46.68;103290.81;5094666;27;45490;-78
2022/01/22 09:57:10;;;;;;;;;27.33;24.33;;;;;11.21;47.14;103293.97;5101320;27;46193;-78
2022/01/22 09:59:36;;;;;;;;;63.00;48.75;;;;;11.21;46.22;103287.59;5083587;27;45525;-77
2022/01/22 10:02:10;;;;;;;;;35.67;29.33;;;;;11.23;46.30;103285.59;5099430;27;45420;-76
2022/01/22 10:04:38;;;;;;;;;29.67;24.67;;;;;11.29;46.39;103294.06;5097140;27;45545;-77
2022/01/22 10:07:15;;;;;;;;;30.00;23.33;;;;;11.27;46.89;103292.50;5093987;27;46563;-77
2022/01/22 10:10:01;;;;;;;;;27.33;23.00;;;;;11.22;46.99;103298.44;5112094;27;45980;-81
2022/01/22 10:12:52;;;;;;;;;22.33;18.33;;;;;11.26;46.64;103299.03;5094776;27;45835;-76
2022/01/22 10:15:22;;;;;;;;;23.00;21.00;;;;;11.36;46.92;103299.84;5083873;27;45311;-76
2022/01/22 10:17:55;;;;;;;;;26.67;25.33;;;;;11.45;46.36;103298.94;5101600;27;45573;-77
2022/01/22 10:20:20;;;;;;;;;31.67;27.67;;;;;11.58;46.59;103304.06;5097195;27;45653;-77
2022/01/22 10:22:50;;;;;;;;;28.33;24.67;;;;;11.60;46.42;103292.91;5094290;27;45598;-78
2022/01/22 10:25:31;;;;;;;;;32.00;24.67;;;;;11.70;45.84;103301.13;5089384;27;45448;-77
2022/01/22 10:28:02;;;;;;;;;31.00;28.00;;;;;11.76;45.47;103297.75;5081102;27;46629;-77
2022/01/22 10:30:37;;;;;;;;;29.33;25.00;;;;;11.83;45.55;103310.72;5083631;27;45399;-79
2022/01/22 10:35:45;;;;;;;;;29.33;26.33;;;;;11.97;44.81;103300.25;5078062;27;46613;-82
2022/01/22 10:38:11;;;;;;;;;25.67;23.33;;;;;12.05;44.88;103305.84;5081670;27;45556;-79
2022/01/22 10:40:39;;;;;;;;;31.00;26.67;;;;;12.07;44.95;103305.69;5080149;27;45560;-79
2022/01/22 10:43:17;;;;;;;;;28.33;27.67;;;;;12.09;44.80;103301.75;5100042;27;45463;-79
2022/01/22 10:46:04;;;;;;;;;47.50;38.25;;;;;12.21;44.82;103304.28;5079589;27;47368;-76
2022/01/22 10:48:30;;;;;;;;;27.67;25.33;;;;;12.26;44.40;103301.91;5099490;27;45841;-80
2022/01/22 10:51:08;;;;;;;;;24.67;21.33;;;;;12.30;43.85;103308.84;5099611;27;45386;-78
2022/01/22 10:53:36;;;;;;;;;31.00;25.67;;;;;12.30;44.19;103287.69;5097974;27;45376;-78
2022/01/22 10:56:04;;;;;;;;;25.33;24.00;;;;;12.34;44.08;103291.84;5091558;27;47436;-78
2022/01/22 10:58:32;;;;;;;;;25.67;23.67;;;;;12.41;43.58;103296.72;5097812;27;45409;-77
2022/01/22 11:01:02;;;;;;;;;25.67;22.00;;;;;12.50;43.55;103295.75;5097882;27;44827;-79
2022/01/22 11:03:28;;;;;;;;;27.67;25.00;;;;;12.56;43.89;103294.28;5080445;27;46012;-77
2022/01/22 11:05:56;;;;;;;;;25.33;22.00;;;;;12.58;43.43;103289.50;5097919;27;45543;-81
2022/01/22 11:08:22;;;;;;;;;23.67;23.00;;;;;12.64;43.39;103286.94;5098695;27;45607;-79
2022/01/22 11:10:48;;;;;;;;;21.33;20.67;;;;;12.73;43.43;103295.28;5100938;27;45647;-78
2022/01/22 11:13:14;;;;;;;;;21.67;20.33;;;;;12.69;42.47;103276.34;5082585;27;45936;-75
2022/01/22 11:15:41;;;;;;;;;19.67;17.67;;;;;12.79;42.46;103289.13;5093092;27;46153;-75
2022/01/22 11:18:09;;;;;;;;;22.33;22.33;;;;;12.84;42.89;103286.75;5069088;27;45692;-73
2022/01/22 11:20:36;;;;;;;;;24.67;21.00;;;;;12.87;42.57;103281.78;5086096;27;46006;-75
2022/01/22 11:23:02;;;;;;;;;23.67;19.00;;;;;12.94;42.93;103281.16;5089710;27;45604;-76
2022/01/22 11:25:28;;;;;;;;;23.00;21.00;;;;;12.99;42.67;103281.50;5096079;27;47244;-79
2022/01/22 11:27:57;;;;;;;;;20.67;20.67;;;;;12.98;42.58;103279.78;5098015;27;45365;-77
2022/01/22 11:30:25;;;;;;;;;21.00;18.67;;;;;13.03;42.48;103280.16;5074629;27;45517;-74
2022/01/22 11:33:10;;;;;;;;;19.67;14.33;;;;;13.11;42.15;103277.44;5087237;27;46005;-75
2022/01/22 11:36:07;;;;;;;;;23.00;18.67;;;;;13.11;41.87;103269.19;5088923;27;46762;-73
2022/01/22 11:38:47;;;;;;;;;20.00;18.33;;;;;13.13;41.76;103267.13;5071158;28;45370;-74
2022/01/22 11:41:20;;;;;;;;;24.67;22.33;;;;;13.17;41.70;103270.41;5092581;27;45613;-74
2022/01/22 11:49:21;;;;;;;;;25.00;22.00;;;;;13.33;42.26;103261.38;5079034;27;45416;-74
2022/01/22 11:51:53;;;;;;;;;28.00;21.33;;;;;13.37;42.42;103260.06;5056236;27;45511;-75
2022/01/22 11:54:22;;;;;;;;;24.00;21.67;;;;;13.40;41.46;103260.56;5085508;27;45689;-75
2022/01/22 11:56:53;;;;;;;;;26.33;24.00;;;;;13.38;41.94;103259.00;5088373;27;45424;-77
2022/01/22 11:59:30;;;;;;;;;28.33;23.00;;;;;13.31;41.88;103256.03;5090900;27;45456;-77
2022/01/22 12:02:04;;;;;;;;;23.00;20.67;;;;;13.36;41.72;103250.06;5085847;27;45714;-77
2022/01/22 12:04:38;;;;;;;;;23.33;23.33;;;;;13.48;41.79;103250.63;5070928;27;45660;-77
2022/01/22 12:07:25;;;;;;;;;26.67;21.67;;;;;13.55;40.76;103252.53;5080113;27;47665;-75
2022/01/22 12:09:53;;;;;;;;;26.00;22.67;;;;;13.56;41.20;103246.00;5093367;27;45428;-75
2022/01/22 12:15:44;;;;;;;;;30.33;27.33;;;;;13.43;42.12;103245.59;5080764;27;45425;-75
2022/01/22 12:18:15;;;;;;;;;24.67;23.00;;;;;13.39;41.64;103235.94;5079278;27;47061;-74
2022/01/22 12:23:34;;;;;;;;;25.67;23.00;;;;;13.41;41.79;103242.13;5088338;27;45389;-75
2022/01/22 12:26:03;;;;;;;;;25.00;22.00;;;;;13.42;41.75;103236.44;5070303;27;46097;-75
2022/01/22 12:28:43;;;;;;;;;19.33;19.33;;;;;13.47;42.16;103235.09;5101653;27;45479;-75
2022/01/22 12:31:20;;;;;;;;;22.00;20.33;;;;;13.52;41.88;103232.72;5099462;27;45357;-74
2022/01/22 12:33:54;;;;;;;;;25.67;23.00;;;;;13.57;41.75;103233.91;5067242;28;45410;-74
2022/01/22 12:36:32;;;;;;;;;27.00;22.33;;;;;13.59;41.79;103220.84;5069775;27;45512;-73
2022/01/22 12:39:07;;;;;;;;;29.00;25.00;;;;;13.65;41.57;103222.03;5073656;27;45885;-75
2022/01/22 12:42:24;;;;;;;;;19.67;18.33;;;;;13.71;40.92;103218.63;5067109;27;45498;-74
2022/01/22 12:44:35;;;;;;;;;25.00;22.67;;;;;13.78;41.24;103218.81;5065579;27;45292;-75
2022/01/22 12:47:05;;;;;;;;;21.33;18.00;;;;;13.84;41.42;103218.13;5074131;27;45362;-74
2022/01/22 12:49:33;;;;;;;;;27.00;24.33;;;;;13.86;40.76;103220.72;5078000;27;46061;-74
2022/01/22 12:52:01;;;;;;;;;22.33;22.33;;;;;13.84;41.57;103212.59;5082230;27;45433;-74
2022/01/22 12:54:30;;;;;;;;;27.00;22.33;;;;;13.82;40.89;103203.66;5074117;27;45418;-75
2022/01/22 12:57:07;;;;;;;;;26.00;23.00;;;;;13.80;41.12;103208.47;5070609;27;46355;-74
2022/01/22 12:59:49;;;;;;;;;29.33;25.00;;;;;13.86;40.69;103215.19;5053103;27;45569;-72
2022/01/22 13:02:15;;;;;;;;;29.67;24.67;;;;;13.86;41.75;103204.16;5083728;27;45672;-74
2022/01/22 13:04:40;;;;;;;;;31.67;26.67;;;;;13.82;41.65;103203.66;5063815;27;45374;-74
2022/01/22 13:07:12;;;;;;;;;25.33;22.33;;;;;13.76;42.28;103201.59;5063335;28;45473;-74
2022/01/22 13:09:45;;;;;;;;;25.67;25.67;;;;;13.76;41.39;103199.69;5061165;28;45739;-75
2022/01/22 13:12:11;;;;;;;;;29.33;24.33;;;;;13.80;42.07;103205.69;5075351;28;46055;-75
2022/01/22 13:14:36;;;;;;;;;25.33;24.67;;;;;13.73;41.37;103201.91;5072053;27;45304;-74
2022/01/22 13:17:02;;;;;;;;;29.00;24.33;;;;;13.73;41.44;103204.69;5082574;27;45412;-74